sensor_id;sensor_type;location;lat;lon;timestamp;temperature;humidity
30280;DHT22;17097;50.916;5.344;2024-03-29T00:01:32;10.70;99.90
30280;DHT22;17097;50.916;5.344;2024-03-29T00:03:58;10.60;99.90
30280;DHT22;17097;50.916;5.344;2024-03-29T00:06:23;10.50;99.90
30280;DHT22;17097;50.916;5.344;2024-03-29T00:08:51;10.60;99.90
30280;DHT22;17097;50.916;5.344;2024-03-29T00:11:19;10.30;99.90
30280;DHT22;17097;50.916;5.344;2024-03-29T00:13:47;10.10;99.90
30280;DHT22;17097;50.916;5.344;2024-03-29T00:16:13;10.20;99.90
30280;DHT22;17097;50.916;5.344;2024-03-29T00:18:38;10.30;99.90
30280;DHT22;17097;50.916;5.344;2024-03-29T00:21:04;10.30;99.90
30280;DHT22;17097;50.916;5.344;2024-03-29T00:23:30;10.30;99.90
30280;DHT22;17097;50.916;5.344;2024-03-29T00:25:56;10.30;99.90
30280;DHT22;17097;50.916;5.344;2024-03-29T00:28:27;10.30;99.90
30280;DHT22;17097;50.916;5.344;2024-03-29T00:30:52;10.20;99.90
30280;DHT22;17097;50.916;5.344;2024-03-29T00:33:18;10.40;99.90
30280;DHT22;17097;50.916;5.344;2024-03-29T00:35:44;10.50;99.90
30280;DHT22;17097;50.916;5.344;2024-03-29T00:38:10;10.50;99.90
30280;DHT22;17097;50.916;5.344;2024-03-29T00:40:36;10.70;99.90
30280;DHT22;17097;50.916;5.344;2024-03-29T00:43:01;10.70;99.90
30280;DHT22;17097;50.916;5.344;2024-03-29T00:45:27;10.70;99.90
30280;DHT22;17097;50.916;5.344;2024-03-29T00:47:55;10.70;99.90
30280;DHT22;17097;50.916;5.344;2024-03-29T00:50:21;10.70;99.90
30280;DHT22;17097;50.916;5.344;2024-03-29T00:52:48;10.60;99.90
30280;DHT22;17097;50.916;5.344;2024-03-29T00:55:17;10.50;99.90
30280;DHT22;17097;50.916;5.344;2024-03-29T00:57:43;10.60;99.90
30280;DHT22;17097;50.916;5.344;2024-03-29T01:00:09;10.70;99.90
30280;DHT22;17097;50.916;5.344;2024-03-29T01:02:35;10.80;99.90
30280;DHT22;17097;50.916;5.344;2024-03-29T01:05:01;10.70;99.90
30280;DHT22;17097;50.916;5.344;2024-03-29T01:07:30;10.50;99.90
30280;DHT22;17097;50.916;5.344;2024-03-29T01:09:56;10.60;99.90
30280;DHT22;17097;50.916;5.344;2024-03-29T01:12:22;10.50;99.90
30280;DHT22;17097;50.916;5.344;2024-03-29T01:14:49;10.70;99.90
30280;DHT22;17097;50.916;5.344;2024-03-29T01:17:18;10.60;99.90
30280;DHT22;17097;50.916;5.344;2024-03-29T01:19:43;10.60;99.90
30280;DHT22;17097;50.916;5.344;2024-03-29T01:22:09;10.60;99.90
30280;DHT22;17097;50.916;5.344;2024-03-29T01:24:37;10.80;99.90
30280;DHT22;17097;50.916;5.344;2024-03-29T01:27:03;10.90;99.90
30280;DHT22;17097;50.916;5.344;2024-03-29T01:29:32;10.90;99.90
30280;DHT22;17097;50.916;5.344;2024-03-29T01:31:58;10.90;99.90
30280;DHT22;17097;50.916;5.344;2024-03-29T01:34:24;10.90;99.90
30280;DHT22;17097;50.916;5.344;2024-03-29T01:36:49;10.90;99.90
30280;DHT22;17097;50.916;5.344;2024-03-29T01:39:17;10.80;99.90
30280;DHT22;17097;50.916;5.344;2024-03-29T01:41:52;10.70;99.90
30280;DHT22;17097;50.916;5.344;2024-03-29T01:44:18;10.60;99.90
30280;DHT22;17097;50.916;5.344;2024-03-29T01:46:44;10.70;99.90
30280;DHT22;17097;50.916;5.344;2024-03-29T01:49:12;10.90;99.90
30280;DHT22;17097;50.916;5.344;2024-03-29T01:51:41;11.00;99.90
30280;DHT22;17097;50.916;5.344;2024-03-29T01:54:08;10.90;99.90
30280;DHT22;17097;50.916;5.344;2024-03-29T01:56:37;10.90;99.90
30280;DHT22;17097;50.916;5.344;2024-03-29T01:59:05;11.00;99.90
30280;DHT22;17097;50.916;5.344;2024-03-29T02:01:36;11.10;99.90
30280;DHT22;17097;50.916;5.344;2024-03-29T02:04:04;11.00;99.90
30280;DHT22;17097;50.916;5.344;2024-03-29T02:06:30;11.10;99.90
30280;DHT22;17097;50.916;5.344;2024-03-29T02:08:56;11.10;99.90
30280;DHT22;17097;50.916;5.344;2024-03-29T02:11:21;11.20;99.90
30280;DHT22;17097;50.916;5.344;2024-03-29T02:13:48;11.30;99.90
30280;DHT22;17097;50.916;5.344;2024-03-29T02:16:17;11.10;99.90
30280;DHT22;17097;50.916;5.344;2024-03-29T02:18:43;11.00;99.90
30280;DHT22;17097;50.916;5.344;2024-03-29T02:21:09;11.00;99.90
30280;DHT22;17097;50.916;5.344;2024-03-29T02:23:37;10.90;99.90
30280;DHT22;17097;50.916;5.344;2024-03-29T02:26:07;10.90;99.90
30280;DHT22;17097;50.916;5.344;2024-03-29T02:28:33;10.80;99.90
30280;DHT22;17097;50.916;5.344;2024-03-29T02:30:59;10.80;99.90
30280;DHT22;17097;50.916;5.344;2024-03-29T02:33:25;10.80;99.90
30280;DHT22;17097;50.916;5.344;2024-03-29T02:35:50;10.90;99.90
30280;DHT22;17097;50.916;5.344;2024-03-29T02:38:18;10.90;99.90
30280;DHT22;17097;50.916;5.344;2024-03-29T02:40:44;10.60;99.90
30280;DHT22;17097;50.916;5.344;2024-03-29T02:43:12;10.40;99.90
30280;DHT22;17097;50.916;5.344;2024-03-29T02:45:38;10.40;99.90
30280;DHT22;17097;50.916;5.344;2024-03-29T02:48:03;10.30;99.90
30280;DHT22;17097;50.916;5.344;2024-03-29T02:50:29;10.30;99.90
30280;DHT22;17097;50.916;5.344;2024-03-29T02:52:57;10.20;99.90
30280;DHT22;17097;50.916;5.344;2024-03-29T02:55:25;10.20;99.90
30280;DHT22;17097;50.916;5.344;2024-03-29T02:57:53;10.00;99.90
30280;DHT22;17097;50.916;5.344;2024-03-29T03:00:19;9.90;99.90
30280;DHT22;17097;50.916;5.344;2024-03-29T03:02:47;10.00;99.90
30280;DHT22;17097;50.916;5.344;2024-03-29T03:05:13;10.20;99.90
30280;DHT22;17097;50.916;5.344;2024-03-29T03:07:38;10.10;99.90
30280;DHT22;17097;50.916;5.344;2024-03-29T03:10:22;10.00;99.90
30280;DHT22;17097;50.916;5.344;2024-03-29T03:13:07;9.70;99.90
30280;DHT22;17097;50.916;5.344;2024-03-29T03:15:35;9.90;99.90
30280;DHT22;17097;50.916;5.344;2024-03-29T03:18:03;9.90;99.90
30280;DHT22;17097;50.916;5.344;2024-03-29T03:20:28;9.80;99.90
30280;DHT22;17097;50.916;5.344;2024-03-29T03:22:56;9.80;99.90
30280;DHT22;17097;50.916;5.344;2024-03-29T03:25:24;9.90;99.90
30280;DHT22;17097;50.916;5.344;2024-03-29T03:27:50;9.80;99.90
30280;DHT22;17097;50.916;5.344;2024-03-29T03:30:16;9.90;99.90
30280;DHT22;17097;50.916;5.344;2024-03-29T03:32:44;9.80;99.90
30280;DHT22;17097;50.916;5.344;2024-03-29T03:35:10;9.90;99.90
30280;DHT22;17097;50.916;5.344;2024-03-29T03:37:35;9.90;99.90
30280;DHT22;17097;50.916;5.344;2024-03-29T03:40:01;9.90;99.90
30280;DHT22;17097;50.916;5.344;2024-03-29T03:42:29;9.80;99.90
30280;DHT22;17097;50.916;5.344;2024-03-29T03:44:58;9.80;99.90
30280;DHT22;17097;50.916;5.344;2024-03-29T03:47:26;9.70;99.90
30280;DHT22;17097;50.916;5.344;2024-03-29T03:49:51;9.70;99.90
30280;DHT22;17097;50.916;5.344;2024-03-29T03:52:19;9.70;99.90
30280;DHT22;17097;50.916;5.344;2024-03-29T03:54:45;9.80;99.90
30280;DHT22;17097;50.916;5.344;2024-03-29T03:57:11;9.90;99.90
30280;DHT22;17097;50.916;5.344;2024-03-29T03:59:36;9.90;99.90
30280;DHT22;17097;50.916;5.344;2024-03-29T04:02:04;9.90;99.90
30280;DHT22;17097;50.916;5.344;2024-03-29T04:04:32;9.90;99.90
30280;DHT22;17097;50.916;5.344;2024-03-29T04:06:58;9.90;99.90
30280;DHT22;17097;50.916;5.344;2024-03-29T04:09:23;9.90;99.90
30280;DHT22;17097;50.916;5.344;2024-03-29T04:11:49;10.00;99.90
30280;DHT22;17097;50.916;5.344;2024-03-29T04:14:14;10.00;99.90
30280;DHT22;17097;50.916;5.344;2024-03-29T04:16:42;10.00;99.90
30280;DHT22;17097;50.916;5.344;2024-03-29T04:19:08;10.10;99.90
30280;DHT22;17097;50.916;5.344;2024-03-29T04:21:34;10.10;99.90
30280;DHT22;17097;50.916;5.344;2024-03-29T04:24:01;10.10;99.90
30280;DHT22;17097;50.916;5.344;2024-03-29T04:26:33;10.10;99.90
30280;DHT22;17097;50.916;5.344;2024-03-29T04:28:58;10.10;99.90
30280;DHT22;17097;50.916;5.344;2024-03-29T04:31:26;10.20;99.90
30280;DHT22;17097;50.916;5.344;2024-03-29T04:33:54;10.20;99.90
30280;DHT22;17097;50.916;5.344;2024-03-29T04:36:20;10.10;99.90
30280;DHT22;17097;50.916;5.344;2024-03-29T04:38:45;10.10;99.90
30280;DHT22;17097;50.916;5.344;2024-03-29T04:41:12;10.10;99.90
30280;DHT22;17097;50.916;5.344;2024-03-29T04:43:40;10.20;99.90
30280;DHT22;17097;50.916;5.344;2024-03-29T04:46:11;10.20;99.90
30280;DHT22;17097;50.916;5.344;2024-03-29T04:48:41;10.30;99.90
30280;DHT22;17097;50.916;5.344;2024-03-29T04:51:08;10.40;99.90
30280;DHT22;17097;50.916;5.344;2024-03-29T04:53:37;10.60;99.90
30280;DHT22;17097;50.916;5.344;2024-03-29T04:56:04;10.50;99.90
30280;DHT22;17097;50.916;5.344;2024-03-29T04:58:32;10.40;99.90
30280;DHT22;17097;50.916;5.344;2024-03-29T05:00:58;10.40;99.90
30280;DHT22;17097;50.916;5.344;2024-03-29T05:03:24;10.40;99.90
30280;DHT22;17097;50.916;5.344;2024-03-29T05:05:51;10.30;99.90
30280;DHT22;17097;50.916;5.344;2024-03-29T05:08:17;10.20;99.90
30280;DHT22;17097;50.916;5.344;2024-03-29T05:10:45;10.30;99.90
30280;DHT22;17097;50.916;5.344;2024-03-29T05:13:11;10.30;99.90
30280;DHT22;17097;50.916;5.344;2024-03-29T05:15:38;10.30;99.90
30280;DHT22;17097;50.916;5.344;2024-03-29T05:18:04;10.40;99.90
30280;DHT22;17097;50.916;5.344;2024-03-29T05:20:33;10.30;99.90
30280;DHT22;17097;50.916;5.344;2024-03-29T05:22:59;10.30;99.90
30280;DHT22;17097;50.916;5.344;2024-03-29T05:25:27;10.30;99.90
30280;DHT22;17097;50.916;5.344;2024-03-29T05:27:55;10.40;99.90
30280;DHT22;17097;50.916;5.344;2024-03-29T05:30:23;10.50;99.90
30280;DHT22;17097;50.916;5.344;2024-03-29T05:32:52;10.40;99.90
30280;DHT22;17097;50.916;5.344;2024-03-29T05:35:19;10.50;99.90
30280;DHT22;17097;50.916;5.344;2024-03-29T05:37:45;10.30;99.90
30280;DHT22;17097;50.916;5.344;2024-03-29T05:40:15;10.20;99.90
30280;DHT22;17097;50.916;5.344;2024-03-29T05:42:41;10.20;99.90
30280;DHT22;17097;50.916;5.344;2024-03-29T05:45:29;10.20;99.90
30280;DHT22;17097;50.916;5.344;2024-03-29T05:47:55;10.20;99.90
30280;DHT22;17097;50.916;5.344;2024-03-29T05:50:22;10.10;99.90
30280;DHT22;17097;50.916;5.344;2024-03-29T05:52:51;10.00;99.90
30280;DHT22;17097;50.916;5.344;2024-03-29T05:55:17;10.30;99.90
30280;DHT22;17097;50.916;5.344;2024-03-29T05:57:43;10.50;99.90
30280;DHT22;17097;50.916;5.344;2024-03-29T06:00:12;10.60;99.90
30280;DHT22;17097;50.916;5.344;2024-03-29T06:02:38;10.60;99.90
30280;DHT22;17097;50.916;5.344;2024-03-29T06:05:07;10.20;99.90
30280;DHT22;17097;50.916;5.344;2024-03-29T06:07:35;10.00;99.90
30280;DHT22;17097;50.916;5.344;2024-03-29T06:10:01;9.90;99.90
30280;DHT22;17097;50.916;5.344;2024-03-29T06:12:31;10.00;99.90
30280;DHT22;17097;50.916;5.344;2024-03-29T06:14:57;10.20;99.90
30280;DHT22;17097;50.916;5.344;2024-03-29T06:17:41;10.30;99.90
30280;DHT22;17097;50.916;5.344;2024-03-29T06:20:07;10.40;99.90
30280;DHT22;17097;50.916;5.344;2024-03-29T06:22:33;10.40;99.90
30280;DHT22;17097;50.916;5.344;2024-03-29T06:24:59;10.50;99.90
30280;DHT22;17097;50.916;5.344;2024-03-29T06:27:31;10.70;99.90
30280;DHT22;17097;50.916;5.344;2024-03-29T06:29:56;10.50;99.90
30280;DHT22;17097;50.916;5.344;2024-03-29T06:32:24;10.30;99.90
30280;DHT22;17097;50.916;5.344;2024-03-29T06:34:50;10.30;99.90
30280;DHT22;17097;50.916;5.344;2024-03-29T06:37:18;10.20;99.90
30280;DHT22;17097;50.916;5.344;2024-03-29T06:39:49;10.20;99.90
30280;DHT22;17097;50.916;5.344;2024-03-29T06:42:15;10.20;99.90
30280;DHT22;17097;50.916;5.344;2024-03-29T06:44:41;10.40;99.90
30280;DHT22;17097;50.916;5.344;2024-03-29T06:47:08;10.50;99.90
30280;DHT22;17097;50.916;5.344;2024-03-29T06:49:34;10.50;99.90
30280;DHT22;17097;50.916;5.344;2024-03-29T06:51:59;10.50;99.90
30280;DHT22;17097;50.916;5.344;2024-03-29T06:54:27;10.60;99.90
30280;DHT22;17097;50.916;5.344;2024-03-29T06:56:54;10.60;99.90
30280;DHT22;17097;50.916;5.344;2024-03-29T06:59:20;10.70;99.90
30280;DHT22;17097;50.916;5.344;2024-03-29T07:01:46;10.70;99.90
30280;DHT22;17097;50.916;5.344;2024-03-29T07:04:23;10.70;99.90
30280;DHT22;17097;50.916;5.344;2024-03-29T07:06:49;10.90;99.90
30280;DHT22;17097;50.916;5.344;2024-03-29T07:09:25;10.90;99.90
30280;DHT22;17097;50.916;5.344;2024-03-29T07:11:52;10.90;99.90
30280;DHT22;17097;50.916;5.344;2024-03-29T07:14:18;10.90;99.90
30280;DHT22;17097;50.916;5.344;2024-03-29T07:16:45;10.90;99.90
30280;DHT22;17097;50.916;5.344;2024-03-29T07:19:12;11.00;99.90
30280;DHT22;17097;50.916;5.344;2024-03-29T07:21:50;10.90;99.90
30280;DHT22;17097;50.916;5.344;2024-03-29T07:24:19;11.00;99.90
30280;DHT22;17097;50.916;5.344;2024-03-29T07:26:44;11.10;99.90
30280;DHT22;17097;50.916;5.344;2024-03-29T07:29:11;11.10;99.90
30280;DHT22;17097;50.916;5.344;2024-03-29T07:31:37;11.10;99.90
30280;DHT22;17097;50.916;5.344;2024-03-29T07:34:03;11.20;99.90
30280;DHT22;17097;50.916;5.344;2024-03-29T07:36:28;11.20;99.90
30280;DHT22;17097;50.916;5.344;2024-03-29T07:38:59;11.20;99.90
30280;DHT22;17097;50.916;5.344;2024-03-29T07:41:25;11.20;99.90
30280;DHT22;17097;50.916;5.344;2024-03-29T07:43:56;11.20;99.90
30280;DHT22;17097;50.916;5.344;2024-03-29T07:46:22;11.30;99.90
30280;DHT22;17097;50.916;5.344;2024-03-29T07:48:51;11.40;99.90
30280;DHT22;17097;50.916;5.344;2024-03-29T07:51:17;11.50;99.90
30280;DHT22;17097;50.916;5.344;2024-03-29T07:53:43;11.60;99.90
30280;DHT22;17097;50.916;5.344;2024-03-29T07:56:09;11.70;99.90
30280;DHT22;17097;50.916;5.344;2024-03-29T07:58:35;11.90;99.90
30280;DHT22;17097;50.916;5.344;2024-03-29T08:01:00;12.10;99.90
30280;DHT22;17097;50.916;5.344;2024-03-29T08:03:26;12.20;99.90
30280;DHT22;17097;50.916;5.344;2024-03-29T08:06:01;12.30;99.90
30280;DHT22;17097;50.916;5.344;2024-03-29T08:08:34;12.40;99.90
30280;DHT22;17097;50.916;5.344;2024-03-29T08:11:00;12.60;99.90
30280;DHT22;17097;50.916;5.344;2024-03-29T08:13:27;12.80;99.90
30280;DHT22;17097;50.916;5.344;2024-03-29T08:15:57;12.90;99.90
30280;DHT22;17097;50.916;5.344;2024-03-29T08:18:24;13.00;99.90
30280;DHT22;17097;50.916;5.344;2024-03-29T08:20:50;13.20;99.90
30280;DHT22;17097;50.916;5.344;2024-03-29T08:23:16;13.20;99.90
30280;DHT22;17097;50.916;5.344;2024-03-29T08:25:42;13.30;99.90
30280;DHT22;17097;50.916;5.344;2024-03-29T08:28:08;13.50;99.90
30280;DHT22;17097;50.916;5.344;2024-03-29T08:30:33;13.90;99.90
30280;DHT22;17097;50.916;5.344;2024-03-29T08:33:03;14.20;99.90
30280;DHT22;17097;50.916;5.344;2024-03-29T08:35:30;14.20;99.90
30280;DHT22;17097;50.916;5.344;2024-03-29T08:37:56;14.20;99.90
30280;DHT22;17097;50.916;5.344;2024-03-29T08:40:26;14.30;99.90
30280;DHT22;17097;50.916;5.344;2024-03-29T08:42:54;14.80;99.90
30280;DHT22;17097;50.916;5.344;2024-03-29T08:45:21;15.00;99.90
30280;DHT22;17097;50.916;5.344;2024-03-29T08:47:47;15.00;99.90
30280;DHT22;17097;50.916;5.344;2024-03-29T08:50:13;14.70;99.90
30280;DHT22;17097;50.916;5.344;2024-03-29T08:52:39;14.30;99.90
30280;DHT22;17097;50.916;5.344;2024-03-29T08:55:09;14.30;99.90
30280;DHT22;17097;50.916;5.344;2024-03-29T08:57:35;14.10;99.90
30280;DHT22;17097;50.916;5.344;2024-03-29T09:00:06;14.00;99.90
30280;DHT22;17097;50.916;5.344;2024-03-29T09:02:32;13.80;99.90
30280;DHT22;17097;50.916;5.344;2024-03-29T09:04:58;13.80;99.90
30280;DHT22;17097;50.916;5.344;2024-03-29T09:07:24;13.80;99.90
30280;DHT22;17097;50.916;5.344;2024-03-29T09:09:50;13.80;99.90
30280;DHT22;17097;50.916;5.344;2024-03-29T09:12:16;13.80;99.90
30280;DHT22;17097;50.916;5.344;2024-03-29T09:14:44;13.90;99.90
30280;DHT22;17097;50.916;5.344;2024-03-29T09:17:10;14.00;99.90
30280;DHT22;17097;50.916;5.344;2024-03-29T09:19:37;14.00;99.90
30280;DHT22;17097;50.916;5.344;2024-03-29T09:22:03;14.00;99.90
30280;DHT22;17097;50.916;5.344;2024-03-29T09:24:28;14.00;99.90
30280;DHT22;17097;50.916;5.344;2024-03-29T09:26:54;14.10;99.90
30280;DHT22;17097;50.916;5.344;2024-03-29T09:29:22;14.00;99.90
30280;DHT22;17097;50.916;5.344;2024-03-29T09:31:51;14.00;99.90
30280;DHT22;17097;50.916;5.344;2024-03-29T09:34:17;13.90;99.90
30280;DHT22;17097;50.916;5.344;2024-03-29T09:36:43;13.90;99.90
30280;DHT22;17097;50.916;5.344;2024-03-29T09:39:09;13.80;99.90
30280;DHT22;17097;50.916;5.344;2024-03-29T09:41:35;13.90;99.90
30280;DHT22;17097;50.916;5.344;2024-03-29T09:44:08;14.00;99.90
30280;DHT22;17097;50.916;5.344;2024-03-29T09:46:34;14.00;99.90
30280;DHT22;17097;50.916;5.344;2024-03-29T09:49:06;14.10;99.90
30280;DHT22;17097;50.916;5.344;2024-03-29T09:51:35;14.10;99.90
30280;DHT22;17097;50.916;5.344;2024-03-29T09:54:03;14.00;99.90
30280;DHT22;17097;50.916;5.344;2024-03-29T09:56:33;14.10;99.90
30280;DHT22;17097;50.916;5.344;2024-03-29T09:59:00;14.20;99.90
30280;DHT22;17097;50.916;5.344;2024-03-29T10:01:27;14.20;99.90
30280;DHT22;17097;50.916;5.344;2024-03-29T10:03:53;14.30;99.90
30280;DHT22;17097;50.916;5.344;2024-03-29T10:06:24;14.40;99.90
30280;DHT22;17097;50.916;5.344;2024-03-29T10:08:50;14.40;99.90
30280;DHT22;17097;50.916;5.344;2024-03-29T10:11:18;14.50;99.90
30280;DHT22;17097;50.916;5.344;2024-03-29T10:13:48;14.50;99.90
30280;DHT22;17097;50.916;5.344;2024-03-29T10:16:14;14.50;99.90
30280;DHT22;17097;50.916;5.344;2024-03-29T10:18:44;14.60;99.90
30280;DHT22;17097;50.916;5.344;2024-03-29T10:21:12;14.80;99.90
30280;DHT22;17097;50.916;5.344;2024-03-29T10:23:38;14.90;99.90
30280;DHT22;17097;50.916;5.344;2024-03-29T10:26:09;15.00;99.90
30280;DHT22;17097;50.916;5.344;2024-03-29T10:28:39;15.00;99.90
30280;DHT22;17097;50.916;5.344;2024-03-29T10:31:07;15.40;99.90
30280;DHT22;17097;50.916;5.344;2024-03-29T10:33:33;15.60;99.90
30280;DHT22;17097;50.916;5.344;2024-03-29T10:36:01;15.80;99.90
30280;DHT22;17097;50.916;5.344;2024-03-29T10:38:30;16.00;99.90
30280;DHT22;17097;50.916;5.344;2024-03-29T10:40:56;16.10;99.90
30280;DHT22;17097;50.916;5.344;2024-03-29T10:43:24;16.20;99.90
30280;DHT22;17097;50.916;5.344;2024-03-29T10:45:50;16.10;99.90
30280;DHT22;17097;50.916;5.344;2024-03-29T10:48:21;16.00;99.90
30280;DHT22;17097;50.916;5.344;2024-03-29T10:50:48;15.80;99.90
30280;DHT22;17097;50.916;5.344;2024-03-29T10:53:16;15.80;99.90
30280;DHT22;17097;50.916;5.344;2024-03-29T10:55:43;15.80;99.90
30280;DHT22;17097;50.916;5.344;2024-03-29T10:58:11;15.80;99.90
30280;DHT22;17097;50.916;5.344;2024-03-29T11:00:39;15.60;99.90
30280;DHT22;17097;50.916;5.344;2024-03-29T11:03:20;15.70;99.90
30280;DHT22;17097;50.916;5.344;2024-03-29T11:05:50;15.90;99.90
30280;DHT22;17097;50.916;5.344;2024-03-29T11:08:23;16.00;99.90
30280;DHT22;17097;50.916;5.344;2024-03-29T11:10:54;15.90;99.90
30280;DHT22;17097;50.916;5.344;2024-03-29T11:15:55;16.20;99.90
30280;DHT22;17097;50.916;5.344;2024-03-29T11:18:21;16.00;99.90
30280;DHT22;17097;50.916;5.344;2024-03-29T11:20:50;15.80;99.90
30280;DHT22;17097;50.916;5.344;2024-03-29T11:23:21;15.60;99.90
30280;DHT22;17097;50.916;5.344;2024-03-29T11:25:52;15.60;99.90
30280;DHT22;17097;50.916;5.344;2024-03-29T11:28:31;15.60;99.90
30280;DHT22;17097;50.916;5.344;2024-03-29T11:31:05;15.40;99.90
30280;DHT22;17097;50.916;5.344;2024-03-29T11:33:32;15.60;99.90
30280;DHT22;17097;50.916;5.344;2024-03-29T11:36:00;15.60;99.90
30280;DHT22;17097;50.916;5.344;2024-03-29T11:38:34;15.60;99.90
30280;DHT22;17097;50.916;5.344;2024-03-29T11:41:15;15.70;99.90
30280;DHT22;17097;50.916;5.344;2024-03-29T11:43:42;15.90;99.90
30280;DHT22;17097;50.916;5.344;2024-03-29T11:46:09;15.90;99.90
30280;DHT22;17097;50.916;5.344;2024-03-29T11:48:36;16.00;99.90
30280;DHT22;17097;50.916;5.344;2024-03-29T11:51:06;16.00;99.90
30280;DHT22;17097;50.916;5.344;2024-03-29T11:53:34;16.00;99.90
30280;DHT22;17097;50.916;5.344;2024-03-29T11:56:00;15.70;99.90
30280;DHT22;17097;50.916;5.344;2024-03-29T11:58:28;15.60;99.90
30280;DHT22;17097;50.916;5.344;2024-03-29T12:00:56;15.60;99.90
30280;DHT22;17097;50.916;5.344;2024-03-29T12:03:26;15.70;99.90
30280;DHT22;17097;50.916;5.344;2024-03-29T12:05:53;15.80;99.90
30280;DHT22;17097;50.916;5.344;2024-03-29T12:08:27;15.90;99.90
30280;DHT22;17097;50.916;5.344;2024-03-29T12:10:53;16.00;99.90
30280;DHT22;17097;50.916;5.344;2024-03-29T12:13:18;16.00;99.90
30280;DHT22;17097;50.916;5.344;2024-03-29T12:15:46;15.80;99.90
30280;DHT22;17097;50.916;5.344;2024-03-29T12:18:14;16.10;99.90
30280;DHT22;17097;50.916;5.344;2024-03-29T12:20:42;16.50;99.90
30280;DHT22;17097;50.916;5.344;2024-03-29T12:23:15;16.60;99.90
30280;DHT22;17097;50.916;5.344;2024-03-29T12:25:44;16.70;99.90
30280;DHT22;17097;50.916;5.344;2024-03-29T12:28:14;16.80;99.90
30280;DHT22;17097;50.916;5.344;2024-03-29T12:30:45;16.70;99.90
30280;DHT22;17097;50.916;5.344;2024-03-29T12:33:19;16.60;99.90
30280;DHT22;17097;50.916;5.344;2024-03-29T12:35:49;16.60;99.90
30280;DHT22;17097;50.916;5.344;2024-03-29T12:38:16;16.60;99.90
30280;DHT22;17097;50.916;5.344;2024-03-29T12:40:44;16.80;99.90
30280;DHT22;17097;50.916;5.344;2024-03-29T12:43:20;17.10;99.90
30280;DHT22;17097;50.916;5.344;2024-03-29T12:45:46;17.40;99.90
30280;DHT22;17097;50.916;5.344;2024-03-29T12:48:17;17.50;99.90
30280;DHT22;17097;50.916;5.344;2024-03-29T12:50:44;17.50;99.90
30280;DHT22;17097;50.916;5.344;2024-03-29T12:53:11;17.50;99.90
30280;DHT22;17097;50.916;5.344;2024-03-29T12:55:43;17.50;99.90
30280;DHT22;17097;50.916;5.344;2024-03-29T12:58:11;17.60;99.90
30280;DHT22;17097;50.916;5.344;2024-03-29T13:00:41;17.50;99.90
30280;DHT22;17097;50.916;5.344;2024-03-29T13:03:08;17.40;99.90
30280;DHT22;17097;50.916;5.344;2024-03-29T13:05:37;17.50;99.90
30280;DHT22;17097;50.916;5.344;2024-03-29T13:08:14;17.60;99.90
30280;DHT22;17097;50.916;5.344;2024-03-29T13:10:43;17.60;99.90
30280;DHT22;17097;50.916;5.344;2024-03-29T13:13:12;17.60;99.90
30280;DHT22;17097;50.916;5.344;2024-03-29T13:15:38;17.40;99.90
30280;DHT22;17097;50.916;5.344;2024-03-29T13:18:07;17.50;99.90
30280;DHT22;17097;50.916;5.344;2024-03-29T13:20:37;17.50;99.90
30280;DHT22;17097;50.916;5.344;2024-03-29T13:23:09;17.50;99.90
30280;DHT22;17097;50.916;5.344;2024-03-29T13:25:36;17.40;99.90
30280;DHT22;17097;50.916;5.344;2024-03-29T13:28:01;17.50;99.90
30280;DHT22;17097;50.916;5.344;2024-03-29T13:30:28;17.60;99.90
30280;DHT22;17097;50.916;5.344;2024-03-29T13:32:54;17.90;99.90
30280;DHT22;17097;50.916;5.344;2024-03-29T13:35:23;18.10;99.90
30280;DHT22;17097;50.916;5.344;2024-03-29T13:37:49;18.10;99.90
30280;DHT22;17097;50.916;5.344;2024-03-29T13:40:22;18.10;99.90
30280;DHT22;17097;50.916;5.344;2024-03-29T13:42:50;18.30;99.90
30280;DHT22;17097;50.916;5.344;2024-03-29T13:45:18;18.60;99.90
30280;DHT22;17097;50.916;5.344;2024-03-29T13:47:45;18.70;99.90
30280;DHT22;17097;50.916;5.344;2024-03-29T13:50:14;18.60;99.90
30280;DHT22;17097;50.916;5.344;2024-03-29T13:52:43;18.40;99.90
30280;DHT22;17097;50.916;5.344;2024-03-29T13:55:09;18.30;99.90
30280;DHT22;17097;50.916;5.344;2024-03-29T13:57:38;18.20;99.90
30280;DHT22;17097;50.916;5.344;2024-03-29T14:00:05;18.10;99.90
30280;DHT22;17097;50.916;5.344;2024-03-29T14:02:32;18.30;99.90
30280;DHT22;17097;50.916;5.344;2024-03-29T14:04:58;18.40;99.90
30280;DHT22;17097;50.916;5.344;2024-03-29T14:07:24;18.60;99.90
30280;DHT22;17097;50.916;5.344;2024-03-29T14:09:50;18.60;99.90
30280;DHT22;17097;50.916;5.344;2024-03-29T14:12:16;18.40;99.90
30280;DHT22;17097;50.916;5.344;2024-03-29T14:14:46;18.50;99.90
30280;DHT22;17097;50.916;5.344;2024-03-29T14:17:16;18.20;99.90
30280;DHT22;17097;50.916;5.344;2024-03-29T14:19:42;18.10;99.90
30280;DHT22;17097;50.916;5.344;2024-03-29T14:22:07;18.10;99.90
30280;DHT22;17097;50.916;5.344;2024-03-29T14:24:34;18.30;99.90
30280;DHT22;17097;50.916;5.344;2024-03-29T14:27:05;18.30;99.90
30280;DHT22;17097;50.916;5.344;2024-03-29T14:29:34;18.00;99.90
30280;DHT22;17097;50.916;5.344;2024-03-29T14:32:02;18.00;99.90
30280;DHT22;17097;50.916;5.344;2024-03-29T14:34:28;17.90;99.90
30280;DHT22;17097;50.916;5.344;2024-03-29T14:36:58;18.00;99.90
30280;DHT22;17097;50.916;5.344;2024-03-29T14:39:24;18.10;99.90
30280;DHT22;17097;50.916;5.344;2024-03-29T14:41:51;18.20;99.90
30280;DHT22;17097;50.916;5.344;2024-03-29T14:44:17;18.10;99.90
30280;DHT22;17097;50.916;5.344;2024-03-29T14:46:45;17.90;99.90
30280;DHT22;17097;50.916;5.344;2024-03-29T14:49:11;17.90;99.90
30280;DHT22;17097;50.916;5.344;2024-03-29T14:51:38;17.90;99.90
30280;DHT22;17097;50.916;5.344;2024-03-29T14:54:04;17.90;99.90
30280;DHT22;17097;50.916;5.344;2024-03-29T14:56:31;18.10;99.90
30280;DHT22;17097;50.916;5.344;2024-03-29T14:59:00;17.90;99.90
30280;DHT22;17097;50.916;5.344;2024-03-29T15:01:29;17.80;99.90
30280;DHT22;17097;50.916;5.344;2024-03-29T15:03:55;17.80;99.90
30280;DHT22;17097;50.916;5.344;2024-03-29T15:06:24;17.90;99.90
30280;DHT22;17097;50.916;5.344;2024-03-29T15:08:56;18.00;99.90
30280;DHT22;17097;50.916;5.344;2024-03-29T15:11:32;18.20;99.90
30280;DHT22;17097;50.916;5.344;2024-03-29T15:14:00;18.10;99.90
30280;DHT22;17097;50.916;5.344;2024-03-29T15:16:28;18.10;99.90
30280;DHT22;17097;50.916;5.344;2024-03-29T15:18:56;18.00;99.90
30280;DHT22;17097;50.916;5.344;2024-03-29T15:21:22;17.70;99.90
30280;DHT22;17097;50.916;5.344;2024-03-29T15:23:48;17.70;99.90
30280;DHT22;17097;50.916;5.344;2024-03-29T15:26:14;17.80;99.90
30280;DHT22;17097;50.916;5.344;2024-03-29T15:28:41;17.70;99.90
30280;DHT22;17097;50.916;5.344;2024-03-29T15:31:25;17.60;99.90
30280;DHT22;17097;50.916;5.344;2024-03-29T15:33:53;17.70;99.90
30280;DHT22;17097;50.916;5.344;2024-03-29T15:36:19;17.40;99.90
30280;DHT22;17097;50.916;5.344;2024-03-29T15:38:47;17.40;99.90